createdAt,value
2019-05-15T00:01:31.320Z,7.40
2019-05-15T00:03:58.467Z,7.40
2019-05-15T00:06:25.019Z,7.40
2019-05-15T00:08:51.360Z,7.40
2019-05-15T00:11:19.248Z,7.40
2019-05-15T00:13:48.381Z,7.50
2019-05-15T00:16:14.863Z,7.50
2019-05-15T00:18:41.177Z,7.50
2019-05-15T00:21:09.231Z,7.50
2019-05-15T00:23:35.814Z,7.50
2019-05-15T00:26:02.211Z,7.50
2019-05-15T00:28:28.885Z,7.50
2019-05-15T00:30:55.594Z,7.40
2019-05-15T00:33:22.274Z,7.40
2019-05-15T00:35:49.716Z,7.40
2019-05-15T00:38:18.441Z,7.20
2019-05-15T00:40:44.326Z,7.10
2019-05-15T00:43:10.662Z,7.20
2019-05-15T00:45:38.593Z,7.10
2019-05-15T00:48:05.201Z,7.20
2019-05-15T00:50:31.534Z,7.10
2019-05-15T00:52:58.991Z,7.00
2019-05-15T00:55:25.527Z,7.00
2019-05-15T00:57:51.906Z,7.00
2019-05-15T01:00:38.846Z,7.00
2019-05-15T01:03:05.214Z,7.00
2019-05-15T01:05:31.572Z,7.00
2019-05-15T01:07:58.664Z,7.10
2019-05-15T01:10:25.074Z,7.10
2019-05-15T01:12:52.302Z,7.00
2019-05-15T01:15:19.014Z,6.90
2019-05-15T01:17:45.455Z,6.90
2019-05-15T01:20:12.288Z,6.90
2019-05-15T01:22:39.456Z,6.80
2019-05-15T01:25:08.604Z,6.80
2019-05-15T01:27:38.599Z,6.80
2019-05-15T01:30:08.674Z,6.80
2019-05-15T01:32:34.587Z,6.70
2019-05-15T01:35:01.005Z,6.70
2019-05-15T01:37:28.170Z,6.80
2019-05-15T01:39:54.695Z,6.90
2019-05-15T01:42:21.543Z,6.80
2019-05-15T01:44:48.387Z,6.70
2019-05-15T01:47:15.195Z,6.80
2019-05-15T01:49:41.519Z,6.80
2019-05-15T01:52:08.944Z,6.80
2019-05-15T01:54:35.347Z,6.80
2019-05-15T01:57:01.675Z,6.80
2019-05-15T01:59:28.353Z,6.80
2019-05-15T02:01:56.054Z,6.90
2019-05-15T02:04:22.383Z,6.80
2019-05-15T02:06:48.752Z,6.70
2019-05-15T02:09:15.072Z,6.80
2019-05-15T02:11:41.414Z,6.60
2019-05-15T02:14:08.264Z,6.70
2019-05-15T02:16:35.330Z,6.60
2019-05-15T02:19:03.148Z,6.60
2019-05-15T02:21:29.536Z,6.50
2019-05-15T02:23:56.057Z,6.50
2019-05-15T02:26:23.793Z,6.50
2019-05-15T02:28:50.160Z,6.50
2019-05-15T02:31:19.457Z,6.50
2019-05-15T02:33:49.581Z,6.50
2019-05-15T02:36:14.526Z,6.50
2019-05-15T02:38:41.416Z,6.50
2019-05-15T02:41:09.850Z,6.50
2019-05-15T02:43:38.764Z,6.50
2019-05-15T02:46:04.529Z,6.40
2019-05-15T02:48:30.940Z,6.40
2019-05-15T02:50:58.875Z,6.40
2019-05-15T02:53:25.672Z,6.30
2019-05-15T02:55:52.110Z,6.30
2019-05-15T02:58:21.509Z,6.30
2019-05-15T03:00:52.269Z,6.30
2019-05-15T03:03:14.944Z,6.30
2019-05-15T03:05:41.367Z,6.30
2019-05-15T03:08:09.602Z,6.20
2019-05-15T03:10:36.260Z,6.20
2019-05-15T03:13:02.610Z,6.10
2019-05-15T03:15:29.227Z,6.10
2019-05-15T03:17:55.706Z,6.20
2019-05-15T03:20:22.103Z,6.20
2019-05-15T03:22:49.487Z,6.20
2019-05-15T03:25:18.977Z,6.10
2019-05-15T03:27:44.691Z,6.20
2019-05-15T03:30:14.333Z,6.20
2019-05-15T03:32:51.842Z,6.20
2019-05-15T03:35:14.479Z,6.20
2019-05-15T03:37:39.748Z,6.20
2019-05-15T03:40:10.290Z,6.20
2019-05-15T03:42:39.327Z,6.30
2019-05-15T03:45:09.641Z,6.20
2019-05-15T03:47:34.880Z,6.20
2019-05-15T03:50:04.141Z,6.30
2019-05-15T03:52:30.579Z,6.20
2019-05-15T03:54:58.816Z,6.10
2019-05-15T03:57:25.268Z,6.10
2019-05-15T03:59:51.989Z,6.10
2019-05-15T04:02:19.385Z,6.10
2019-05-15T04:04:49.795Z,6.30
2019-05-15T04:07:14.470Z,6.30
2019-05-15T04:09:42.019Z,6.30
2019-05-15T04:12:09.500Z,6.20
2019-05-15T04:14:39.267Z,6.20
2019-05-15T04:17:04.537Z,6.00
2019-05-15T04:19:31.207Z,5.90
2019-05-15T04:21:59.957Z,5.80
2019-05-15T04:24:30.073Z,5.90
2019-05-15T04:26:59.592Z,6.00
2019-05-15T04:29:24.416Z,6.10
2019-05-15T04:32:00.555Z,6.10
2019-05-15T04:34:19.610Z,6.20
2019-05-15T04:36:49.499Z,6.20
2019-05-15T04:39:14.581Z,6.20
2019-05-15T04:41:40.913Z,6.20
2019-05-15T04:44:10.347Z,6.30
2019-05-15T04:46:39.219Z,6.30
2019-05-15T04:49:09.040Z,6.30
2019-05-15T04:51:34.079Z,6.30
2019-05-15T04:54:00.434Z,6.40
2019-05-15T04:56:29.284Z,6.30
2019-05-15T04:58:55.016Z,6.40
2019-05-15T05:01:21.536Z,6.40
2019-05-15T05:03:49.601Z,6.30
2019-05-15T05:06:19.014Z,6.30
2019-05-15T05:08:48.844Z,6.30
2019-05-15T05:11:14.809Z,6.30
2019-05-15T05:13:41.197Z,6.40
2019-05-15T05:16:09.451Z,6.30
2019-05-15T05:18:40.474Z,6.20
2019-05-15T05:21:04.349Z,6.20
2019-05-15T05:23:30.713Z,6.30
2019-05-15T05:25:58.121Z,6.20
2019-05-15T05:28:24.895Z,6.20
2019-05-15T05:30:51.222Z,6.30
2019-05-15T05:33:18.139Z,6.40
2019-05-15T05:35:45.121Z,6.50
2019-05-15T05:38:11.460Z,6.60
2019-05-15T05:40:38.503Z,6.70
2019-05-15T05:43:05.018Z,6.80
2019-05-15T05:45:31.365Z,6.90
2019-05-15T05:47:58.068Z,6.90
2019-05-15T05:50:38.526Z,6.70
2019-05-15T05:53:08.793Z,6.80
2019-05-15T05:55:35.199Z,7.00
2019-05-15T05:58:01.628Z,7.00
2019-05-15T06:00:36.225Z,7.10
2019-05-15T06:03:03.610Z,7.10
2019-05-15T06:05:30.729Z,7.10
2019-05-15T06:07:58.217Z,7.00
2019-05-15T06:10:25.132Z,7.10
2019-05-15T06:12:52.232Z,7.10
2019-05-15T06:15:18.715Z,7.10
2019-05-15T06:17:47.981Z,7.10
2019-05-15T06:20:13.601Z,7.20
2019-05-15T06:22:40.030Z,7.30
2019-05-15T06:25:10.658Z,7.40
2019-05-15T06:27:35.049Z,7.50
2019-05-15T06:30:04.185Z,7.60
2019-05-15T06:32:30.645Z,7.80
2019-05-15T06:34:57.825Z,7.90
2019-05-15T06:37:24.439Z,7.80
2019-05-15T06:39:50.834Z,7.80
2019-05-15T06:42:19.122Z,8.00
2019-05-15T06:44:45.581Z,7.90
2019-05-15T06:47:11.933Z,8.10
2019-05-15T06:49:38.286Z,8.20
2019-05-15T06:52:04.649Z,8.30
2019-05-15T06:54:31.416Z,8.50
2019-05-15T06:56:58.310Z,8.60
2019-05-15T06:59:25.451Z,8.60
2019-05-15T07:01:53.928Z,8.40
2019-05-15T07:04:20.321Z,8.50
2019-05-15T07:06:48.705Z,8.70
2019-05-15T07:09:14.927Z,8.90
2019-05-15T07:11:41.287Z,9.00
2019-05-15T07:14:08.903Z,8.70
2019-05-15T07:16:35.590Z,9.20
2019-05-15T07:19:01.936Z,9.30
2019-05-15T07:21:28.612Z,9.40
2019-05-15T07:23:58.415Z,9.30
2019-05-15T07:26:28.831Z,9.20
2019-05-15T07:28:52.701Z,9.40
2019-05-15T07:31:19.038Z,9.20
2019-05-15T07:33:45.864Z,9.60
2019-05-15T07:36:12.247Z,9.70
2019-05-15T07:38:39.260Z,9.60
2019-05-15T07:41:05.828Z,9.00
2019-05-15T07:43:33.533Z,9.00
2019-05-15T07:45:59.994Z,9.00
2019-05-15T07:48:28.872Z,8.80
2019-05-15T07:50:54.569Z,8.90
2019-05-15T07:53:20.927Z,8.90
2019-05-15T07:55:50.052Z,8.90
2019-05-15T07:58:15.955Z,8.90
2019-05-15T08:00:42.626Z,8.70
2019-05-15T08:03:10.388Z,8.60
2019-05-15T08:05:39.458Z,8.30
2019-05-15T08:08:05.916Z,8.30
2019-05-15T08:10:32.249Z,8.40
2019-05-15T08:12:58.650Z,8.50
2019-05-15T08:15:28.566Z,8.50
2019-05-15T08:18:05.406Z,8.50
2019-05-15T08:20:24.600Z,8.50
2019-05-15T08:22:52.989Z,8.70
2019-05-15T08:25:30.454Z,8.50
2019-05-15T08:27:48.550Z,8.60
2019-05-15T08:30:18.503Z,8.30
2019-05-15T08:32:48.477Z,8.40
2019-05-15T08:35:13.980Z,8.60
2019-05-15T08:37:40.314Z,8.60
2019-05-15T08:40:08.564Z,8.50
2019-05-15T08:42:35.228Z,8.70
2019-05-15T08:45:04.092Z,8.80
2019-05-15T08:47:30.412Z,8.90
2019-05-15T08:49:57.929Z,8.90
2019-05-15T08:52:24.568Z,8.80
2019-05-15T08:54:51.296Z,8.80
2019-05-15T08:57:20.389Z,8.80
2019-05-15T08:59:48.689Z,8.80
2019-05-15T09:02:14.476Z,8.90
2019-05-15T09:04:40.810Z,8.70
2019-05-15T09:07:09.170Z,8.70
2019-05-15T09:09:38.220Z,8.60
2019-05-15T09:12:03.941Z,8.60
2019-05-15T09:14:31.383Z,8.60
2019-05-15T09:16:58.277Z,8.50
2019-05-15T09:19:24.906Z,8.30
2019-05-15T09:21:51.235Z,8.60
2019-05-15T09:24:19.832Z,8.70
2019-05-15T09:26:48.500Z,8.60
2019-05-15T09:29:14.188Z,8.50
2019-05-15T09:31:40.526Z,8.50
2019-05-15T09:34:09.130Z,8.10
2019-05-15T09:36:35.164Z,8.30
2019-05-15T09:39:01.526Z,8.30
2019-05-15T09:41:28.692Z,8.30
2019-05-15T09:43:55.180Z,8.10
2019-05-15T09:46:22.909Z,8.30
2019-05-15T09:48:51.965Z,8.40
2019-05-15T09:51:18.348Z,8.30
2019-05-15T09:53:45.191Z,8.50
2019-05-15T09:56:11.619Z,8.50
2019-05-15T09:58:38.484Z,8.60
2019-05-15T10:01:04.853Z,8.60
2019-05-15T10:03:31.178Z,8.60
2019-05-15T10:05:57.511Z,8.70
2019-05-15T10:08:23.840Z,8.60
2019-05-15T10:10:50.215Z,8.50
2019-05-15T10:13:18.493Z,8.60
2019-05-15T10:15:48.359Z,8.70
2019-05-15T10:18:13.813Z,8.60
2019-05-15T10:20:40.393Z,8.70
2019-05-15T10:23:08.819Z,8.90
2019-05-15T10:25:35.533Z,8.80
2019-05-15T10:28:02.196Z,8.90
2019-05-15T10:30:28.646Z,8.80
2019-05-15T10:32:56.168Z,8.70
2019-05-15T10:35:28.057Z,8.70
2019-05-15T10:37:50.888Z,8.80
2019-05-15T10:40:20.337Z,8.70
2019-05-15T10:42:46.116Z,8.70
2019-05-15T10:45:12.972Z,8.70
2019-05-15T10:47:39.475Z,8.70
2019-05-15T10:50:08.066Z,8.80
2019-05-15T10:52:34.461Z,8.70
2019-05-15T10:55:01.071Z,8.70
2019-05-15T10:57:28.482Z,8.90
2019-05-15T10:59:58.400Z,8.70
2019-05-15T11:02:25.017Z,8.80
2019-05-15T11:04:51.402Z,8.70
2019-05-15T11:07:19.532Z,8.80
2019-05-15T11:09:48.921Z,9.00
2019-05-15T11:12:15.137Z,9.00
2019-05-15T11:14:41.849Z,9.00
2019-05-15T11:17:08.181Z,8.90
2019-05-15T11:19:36.503Z,9.00
2019-05-15T11:22:02.934Z,9.10
2019-05-15T11:24:32.246Z,9.00
2019-05-15T11:26:59.429Z,9.40
2019-05-15T11:29:25.797Z,9.70
2019-05-15T11:31:52.132Z,9.40
2019-05-15T11:34:18.826Z,9.70
2019-05-15T11:36:45.213Z,9.80
2019-05-15T11:39:11.610Z,9.90
2019-05-15T11:41:38.729Z,9.80
2019-05-15T11:44:05.720Z,9.70
2019-05-15T11:46:32.140Z,9.60
2019-05-15T11:48:58.941Z,9.30
2019-05-15T11:51:25.540Z,9.20
2019-05-15T11:53:51.862Z,9.20
2019-05-15T11:56:18.868Z,9.30
2019-05-15T11:58:45.523Z,9.10
2019-05-15T12:01:12.063Z,9.00
2019-05-15T12:03:38.780Z,9.00
2019-05-15T12:06:15.996Z,9.00
2019-05-15T12:08:34.061Z,9.00
2019-05-15T12:11:00.361Z,8.90
2019-05-15T12:13:27.968Z,8.80
2019-05-15T12:15:54.481Z,8.60
2019-05-15T12:18:20.827Z,8.50
2019-05-15T12:20:48.717Z,8.50
2019-05-15T12:23:15.469Z,8.30
2019-05-15T12:25:41.991Z,8.50
2019-05-15T12:30:39.948Z,8.50
2019-05-15T12:33:05.147Z,8.50
2019-05-15T12:35:31.469Z,8.40
2019-05-15T12:37:57.914Z,8.50
2019-05-15T13:00:18.071Z,8.50
2019-05-15T13:02:44.150Z,8.50
2019-05-15T13:05:11.036Z,8.60
2019-05-15T13:07:37.923Z,8.70
2019-05-15T13:10:08.483Z,8.60
2019-05-15T13:13:04.168Z,8.60
2019-05-15T13:15:23.881Z,8.70
2019-05-15T13:17:52.688Z,8.60
2019-05-15T13:20:18.727Z,8.70
2019-05-15T13:22:45.599Z,8.70
2019-05-15T13:25:12.966Z,8.80
2019-05-15T13:27:39.335Z,8.90
2019-05-15T13:30:09.023Z,8.70
2019-05-15T13:32:40.694Z,8.70
2019-05-15T13:35:05.884Z,8.70
2019-05-15T13:37:32.421Z,8.70
2019-05-15T13:40:01.577Z,8.80
2019-05-15T13:42:28.096Z,8.80
2019-05-15T13:44:54.553Z,8.80
2019-05-15T13:47:21.788Z,8.90
2019-05-15T13:49:48.181Z,8.80
2019-05-15T13:52:14.562Z,9.00
2019-05-15T13:54:40.978Z,8.90
2019-05-15T13:57:08.859Z,9.00
2019-05-15T13:59:35.416Z,8.90
2019-05-15T14:02:01.774Z,8.90
2019-05-15T14:04:29.875Z,9.10
2019-05-15T14:06:57.884Z,9.20
2019-05-15T14:09:24.522Z,9.10
2019-05-15T14:11:51.064Z,9.10
2019-05-15T14:14:18.454Z,9.10
2019-05-15T14:16:44.842Z,9.00
2019-05-15T14:19:11.174Z,8.90
2019-05-15T14:21:38.072Z,9.00
2019-05-15T14:24:04.656Z,8.90
2019-05-15T14:26:34.210Z,9.10
2019-05-15T14:29:08.857Z,9.20
2019-05-15T14:31:39.731Z,9.30
2019-05-15T14:34:08.781Z,9.30
2019-05-15T14:36:36.034Z,9.30
2019-05-15T14:39:05.211Z,9.20
2019-05-15T14:41:32.600Z,9.20
2019-05-15T14:44:11.854Z,9.20
2019-05-15T14:46:27.261Z,9.20
2019-05-15T14:48:53.980Z,9.20
2019-05-15T14:51:20.356Z,9.10
2019-05-15T14:53:48.900Z,9.00
2019-05-15T14:56:14.977Z,9.10
2019-05-15T14:58:41.552Z,9.00
2019-05-15T15:01:12.179Z,8.90
2019-05-15T15:03:38.090Z,8.90
2019-05-15T15:06:04.857Z,9.00
2019-05-15T15:08:32.740Z,8.90
2019-05-15T15:11:00.458Z,8.70
2019-05-15T15:13:28.864Z,8.90
2019-05-15T15:15:55.625Z,9.00
2019-05-15T15:18:24.280Z,9.00
2019-05-15T15:20:50.844Z,9.00
2019-05-15T15:23:19.953Z,9.20
2019-05-15T15:25:48.353Z,9.00
2019-05-15T15:28:14.772Z,9.20
2019-05-15T15:30:41.509Z,9.10
2019-05-15T15:33:08.598Z,9.00
2019-05-15T15:35:35.293Z,9.00
2019-05-15T15:38:01.594Z,9.10
2019-05-15T15:40:28.361Z,9.10
2019-05-15T15:42:54.699Z,9.10
2019-05-15T15:45:21.201Z,9.00
2019-05-15T15:47:48.795Z,9.10
2019-05-15T15:50:18.108Z,9.00
2019-05-15T15:52:44.217Z,9.00
2019-05-15T15:55:11.875Z,9.30
2019-05-15T15:57:39.772Z,9.30
2019-05-15T16:00:08.842Z,9.40
2019-05-15T16:02:35.507Z,9.60
2019-05-15T16:05:08.148Z,9.50
2019-05-15T16:07:34.486Z,9.40
2019-05-15T16:10:01.462Z,9.30
2019-05-15T16:12:27.966Z,9.40
2019-05-15T16:14:54.372Z,9.40
2019-05-15T16:17:20.805Z,9.40
2019-05-15T16:19:49.135Z,9.70
2019-05-15T16:22:15.582Z,9.80
2019-05-15T16:24:42.079Z,9.80
2019-05-15T16:27:09.597Z,9.80
2019-05-15T16:29:39.061Z,10.00
2019-05-15T16:32:04.583Z,10.20
2019-05-15T16:34:32.096Z,10.30
2019-05-15T16:37:00.677Z,10.20
2019-05-15T16:39:28.706Z,10.20
2019-05-15T16:41:55.641Z,10.10
2019-05-15T16:44:22.252Z,10.10
2019-05-15T16:46:48.616Z,10.00
2019-05-15T16:49:16.063Z,9.90
2019-05-15T16:51:42.419Z,10.00
2019-05-15T16:54:08.936Z,9.80
2019-05-15T16:56:36.689Z,9.60
2019-05-15T16:59:03.687Z,9.60
2019-05-15T17:01:30.051Z,9.50
2019-05-15T17:03:58.055Z,9.50
2019-05-15T17:06:24.665Z,9.40
2019-05-15T17:08:51.187Z,9.40
2019-05-15T17:11:19.806Z,9.30
2019-05-15T17:13:48.233Z,9.40
2019-05-15T17:16:14.345Z,9.30
2019-05-15T17:18:40.677Z,9.20
2019-05-15T17:21:14.579Z,9.30
2019-05-15T17:23:40.897Z,9.40
2019-05-15T17:26:08.896Z,9.30
2019-05-15T17:28:38.142Z,9.30
2019-05-15T17:31:04.255Z,9.20
2019-05-15T17:34:07.272Z,9.10
2019-05-15T17:36:33.923Z,9.30
2019-05-15T17:39:01.945Z,9.40
2019-05-15T17:41:34.860Z,9.50
2019-05-15T17:44:12.593Z,9.50
2019-05-15T17:46:44.041Z,9.40
2019-05-15T17:49:17.531Z,9.40
2019-05-15T17:51:44.182Z,9.30
2019-05-15T17:54:31.452Z,9.30
2019-05-15T17:57:01.009Z,9.10
2019-05-15T17:59:32.964Z,9.10
2019-05-15T18:01:59.707Z,9.10
2019-05-15T18:04:28.265Z,9.00
2019-05-15T18:06:54.790Z,8.90
2019-05-15T18:09:28.020Z,8.90
2019-05-15T18:11:54.695Z,9.00
2019-05-15T18:14:21.639Z,9.00
2019-05-15T18:16:50.746Z,9.00
2019-05-15T18:19:18.764Z,9.10
2019-05-15T18:21:46.129Z,9.10
2019-05-15T18:24:14.461Z,9.20
2019-05-15T18:26:41.076Z,9.30
2019-05-15T18:29:09.052Z,9.30
2019-05-15T18:31:38.082Z,9.20
2019-05-15T18:34:09.845Z,9.20
2019-05-15T18:36:42.460Z,9.20
2019-05-15T18:39:08.967Z,9.10
2019-05-15T18:41:37.757Z,9.10
2019-05-15T18:44:04.331Z,9.00
2019-05-15T18:46:30.808Z,9.00
2019-05-15T18:48:57.921Z,8.90
2019-05-15T18:51:24.877Z,8.90
2019-05-15T18:53:51.646Z,8.90
2019-05-15T18:56:18.780Z,9.00
2019-05-15T18:58:45.422Z,8.90
2019-05-15T19:01:12.147Z,8.90
2019-05-15T19:03:38.690Z,8.90
2019-05-15T19:06:08.757Z,8.80
2019-05-15T19:08:34.703Z,8.80
2019-05-15T19:11:01.378Z,8.80
2019-05-15T19:13:28.251Z,8.90
2019-05-15T19:15:57.820Z,8.80
2019-05-15T19:18:23.788Z,8.80
2019-05-15T19:20:50.260Z,8.70
2019-05-15T19:23:18.181Z,8.80
2019-05-15T19:25:45.010Z,8.80
2019-05-15T19:28:11.442Z,8.70
2019-05-15T19:30:38.947Z,8.70
2019-05-15T19:33:07.819Z,8.80
2019-05-15T19:35:34.661Z,8.90
2019-05-15T19:38:01.120Z,8.90
2019-05-15T19:40:28.433Z,8.80
2019-05-15T19:42:55.352Z,8.80
2019-05-15T19:45:22.202Z,8.70
2019-05-15T19:47:48.553Z,8.80
2019-05-15T19:50:15.276Z,8.80
2019-05-15T19:52:43.598Z,8.80
2019-05-15T19:55:10.133Z,8.70
2019-05-15T19:57:38.980Z,8.80
2019-05-15T20:00:08.527Z,8.90
2019-05-15T20:02:41.745Z,8.90
2019-05-15T20:05:09.725Z,8.80
2019-05-15T20:07:38.670Z,8.80
2019-05-15T20:10:05.591Z,8.70
2019-05-15T20:12:33.876Z,8.70
2019-05-15T20:15:00.417Z,8.70
2019-05-15T20:17:27.905Z,8.70
2019-05-15T20:19:54.345Z,8.70
2019-05-15T20:22:20.756Z,8.80
2019-05-15T20:24:47.117Z,8.70
2019-05-15T20:27:13.891Z,8.70
2019-05-15T20:29:40.344Z,8.70
2019-05-15T20:32:06.702Z,8.70
2019-05-15T20:34:33.280Z,8.80
2019-05-15T20:36:59.741Z,8.80
2019-05-15T20:39:27.580Z,8.70
2019-05-15T20:41:54.574Z,8.70
2019-05-15T20:44:21.026Z,8.70
2019-05-15T20:46:50.621Z,8.60
2019-05-15T20:49:17.919Z,8.70
2019-05-15T20:51:45.420Z,8.70
2019-05-15T20:54:11.733Z,8.70
2019-05-15T20:56:38.567Z,8.80
2019-05-15T20:59:04.975Z,8.70
2019-05-15T21:01:31.385Z,8.70
2019-05-15T21:03:59.430Z,8.80
2019-05-15T21:06:28.244Z,8.70
2019-05-15T21:08:54.537Z,8.80
2019-05-15T21:11:21.174Z,8.70
2019-05-15T21:13:49.076Z,8.60
2019-05-15T21:16:18.740Z,8.40
2019-05-15T21:18:45.017Z,8.50
2019-05-15T21:21:11.443Z,8.60
2019-05-15T21:23:38.670Z,8.50
2019-05-15T21:26:08.222Z,8.50
2019-05-15T21:28:34.763Z,8.40
2019-05-15T21:31:01.114Z,8.40
2019-05-15T21:33:27.864Z,8.50
2019-05-15T21:35:54.183Z,8.40
2019-05-15T21:38:21.328Z,8.40
2019-05-15T21:40:48.771Z,8.50
2019-05-15T21:43:15.160Z,8.60
2019-05-15T21:45:41.488Z,8.70
2019-05-15T21:48:08.994Z,8.70
2019-05-15T21:50:38.783Z,8.70
2019-05-15T21:53:05.115Z,8.70
2019-05-15T21:55:32.259Z,8.60
2019-05-15T21:57:59.964Z,8.60
2019-05-15T22:00:34.137Z,8.70
2019-05-15T22:03:01.460Z,8.70
2019-05-15T22:05:29.371Z,8.70
2019-05-15T22:10:48.236Z,8.60
2019-05-15T22:13:14.847Z,8.60
2019-05-15T22:15:42.100Z,8.60
2019-05-15T22:18:11.357Z,8.50
2019-05-15T22:20:38.766Z,8.50
2019-05-15T22:23:08.070Z,8.50
2019-05-15T22:25:33.845Z,8.60
2019-05-15T22:28:00.938Z,8.60
2019-05-15T22:30:30.029Z,8.50
2019-05-15T22:32:58.474Z,8.50
2019-05-15T22:35:23.813Z,8.50
2019-05-15T22:37:50.206Z,8.60
2019-05-15T22:40:18.363Z,8.70
2019-05-15T22:42:44.869Z,8.60
2019-05-15T22:45:12.049Z,8.60
2019-05-15T22:47:39.170Z,8.60
2019-05-15T22:50:08.407Z,8.60
2019-05-15T22:52:35.052Z,8.70
2019-05-15T22:55:01.745Z,8.70
2019-05-15T22:57:28.146Z,8.60
2019-05-15T22:59:54.513Z,8.50
2019-05-15T23:02:20.859Z,8.70
2019-05-15T23:04:47.246Z,8.70
2019-05-15T23:07:13.597Z,8.70
2019-05-15T23:09:41.301Z,8.60
2019-05-15T23:12:11.362Z,8.60
2019-05-15T23:14:37.955Z,8.60
2019-05-15T23:17:04.537Z,8.60
2019-05-15T23:19:30.860Z,8.60
2019-05-15T23:21:59.062Z,8.70
2019-05-15T23:24:28.047Z,8.80
2019-05-15T23:26:54.104Z,8.80
2019-05-15T23:29:20.462Z,8.80
2019-05-15T23:31:46.819Z,8.70
2019-05-15T23:34:13.151Z,8.70
2019-05-15T23:36:39.482Z,8.70
2019-05-15T23:39:07.807Z,8.70
2019-05-15T23:41:34.300Z,8.60
2019-05-15T23:44:00.664Z,8.70
2019-05-15T23:46:28.793Z,8.70
2019-05-15T23:48:55.489Z,8.70
2019-05-15T23:51:21.838Z,8.70
2019-05-15T23:53:48.539Z,8.60
2019-05-15T23:56:15.054Z,8.60
2019-05-15T23:58:41.402Z,8.50
